Time;durP1;ratioP1;P1;durP2;ratioP2;P2;SDS_P1;SDS_P2;PMS_P1;PMS_P2;Temp;Humidity;BMP_temperature;BMP_pressure;BME280_temperature;BME280_humidity;BME280_pressure;Samples;Min_cycle;Max_cycle;Signal;HPM_P1;HPM_P2
2023/05/04 00:00:31;;;;;;;2.00;1.15;;;;;;;7.77;61.27;102184.72;15470688;28;20512;-53
2023/05/04 00:08:05;;;;;;;1.38;0.30;;;;;;;7.41;62.63;102184.78;15487270;28;20039;-56
2023/05/04 00:15:40;;;;;;;1.08;0.98;;;;;;;7.46;62.22;102178.13;15487330;28;20598;-53
2023/05/04 00:23:12;;;;;;;0.22;0.20;;;;;;;7.46;62.34;102170.09;15456274;28;20438;-53
2023/05/04 00:30:46;;;;;;;0.37;0.37;;;;;;;7.53;62.04;102169.34;15490069;28;20042;-55
2023/05/04 00:38:19;;;;;;;0.60;0.60;;;;;;;7.52;62.08;102170.34;15495469;28;20126;-52
2023/05/04 00:45:53;;;;;;;0.82;0.47;;;;;;;7.16;62.49;102130.31;15498738;28;20053;-53
2023/05/04 00:53:25;;;;;;;0.70;0.38;;;;;;;7.38;62.80;102170.91;15494838;28;20066;-54
2023/05/04 01:01:03;;;;;;;0.43;0.30;;;;;;;7.39;62.74;102161.88;15484214;28;20050;-51
2023/05/04 01:08:41;;;;;;;5.22;1.17;;;;;;;7.43;62.10;102165.09;15462237;28;20411;-54
2023/05/04 01:16:16;;;;;;;0.60;0.57;;;;;;;7.31;62.32;102161.81;15481392;28;20073;-52
2023/05/04 01:23:50;;;;;;;0.10;0.10;;;;;;;7.20;63.12;102162.06;15494986;28;20042;-50
2023/05/04 01:31:26;;;;;;;0.98;0.68;;;;;;;7.01;63.07;102163.03;15465528;28;20109;-50
2023/05/04 01:39:00;;;;;;;0.88;0.40;;;;;;;7.05;62.81;102167.09;15495260;28;20627;-50
2023/05/04 01:46:35;;;;;;;1.23;0.60;;;;;;;6.77;63.96;102160.97;15492118;28;20261;-53
2023/05/04 01:54:09;;;;;;;2.28;0.65;;;;;;;6.80;64.20;102161.47;15454821;28;20420;-52
2023/05/04 02:01:46;;;;;;;0.57;0.32;;;;;;;6.84;64.16;102154.84;15491747;28;20578;-53
2023/05/04 02:09:21;;;;;;;0.50;0.50;;;;;;;6.79;63.81;102153.63;15492501;28;20499;-51
2023/05/04 02:16:54;;;;;;;0.77;0.63;;;;;;;7.30;62.72;102149.44;15478310;28;20051;-50
2023/05/04 02:24:34;;;;;;;0.40;0.40;;;;;;;7.21;62.36;102147.69;15492783;28;20439;-52
2023/05/04 02:32:07;;;;;;;1.13;0.50;;;;;;;7.00;63.24;102150.69;15459231;28;20133;-51
2023/05/04 02:39:41;;;;;;;1.97;0.70;;;;;;;7.02;63.53;102144.19;15471468;28;20046;-51
2023/05/04 02:47:18;;;;;;;1.88;0.60;;;;;;;7.14;62.71;102152.84;15491518;28;20118;-54
2023/05/04 02:54:52;;;;;;;0.15;0.15;;;;;;;7.08;62.96;102143.56;15491300;28;20054;-50
2023/05/04 03:02:24;;;;;;;1.58;0.65;;;;;;;6.79;62.90;102127.78;15469989;28;20046;-52
2023/05/04 03:10:00;;;;;;;0.32;0.32;;;;;;;6.68;64.56;102136.03;15470555;28;20598;-52
2023/05/04 03:17:33;;;;;;;0.85;0.80;;;;;;;6.52;64.20;102133.16;15470383;28;20050;-50
2023/05/04 03:25:09;;;;;;;1.98;1.17;;;;;;;6.57;64.55;102131.72;15488650;28;20584;-51
2023/05/04 03:32:42;;;;;;;2.67;1.30;;;;;;;6.45;65.06;102134.75;15500878;28;20142;-51
2023/05/04 03:40:21;;;;;;;0.63;0.57;;;;;;;6.43;64.63;102142.06;15471646;28;20043;-53
2023/05/04 03:47:55;;;;;;;0.63;0.63;;;;;;;6.44;65.20;102141.91;15471366;28;20682;-57
2023/05/04 03:55:30;;;;;;;0.20;0.17;;;;;;;6.43;64.84;102140.22;15471065;28;20407;-51
2023/05/04 04:03:03;;;;;;;1.10;0.57;;;;;;;6.47;64.24;102124.75;15468978;28;20150;-52
2023/05/04 04:10:43;;;;;;;0.75;0.47;;;;;;;6.37;64.70;102135.50;15470026;28;20495;-50
2023/05/04 04:18:16;;;;;;;2.38;1.02;;;;;;;6.52;65.01;102127.81;15485046;28;20047;-50
2023/05/04 04:25:52;;;;;;;0.75;0.43;;;;;;;6.77;64.54;102128.94;15472138;28;20069;-51
2023/05/04 04:33:25;;;;;;;0.05;0.05;;;;;;;6.64;64.84;102126.63;15484230;28;20213;-49
2023/05/04 04:41:00;;;;;;;0.73;0.63;;;;;;;6.91;64.95;102139.09;15485633;28;20038;-51
2023/05/04 04:48:33;;;;;;;0.73;0.50;;;;;;;7.28;63.59;102138.94;15466272;28;20054;-50
2023/05/04 04:56:08;;;;;;;0.50;0.47;;;;;;;7.29;63.78;102134.44;15486792;28;20130;-50
2023/05/04 05:03:41;;;;;;;0.20;0.10;;;;;;;7.18;64.30;102142.66;15474606;28;20550;-49
2023/05/04 05:11:15;;;;;;;0.40;0.32;;;;;;;7.66;64.87;102129.69;15486481;28;20046;-49
2023/05/04 05:18:48;;;;;;;2.83;1.77;;;;;;;7.79;63.62;102126.63;15478342;28;20038;-54
2023/05/04 05:26:23;;;;;;;3.85;0.75;;;;;;;8.00;63.36;102136.06;15481152;28;20042;-49
2023/05/04 05:33:57;;;;;;;0.85;0.32;;;;;;;8.78;60.81;102133.22;15496894;28;20046;-50
2023/05/04 05:41:33;;;;;;;;;;;;;;;9.34;61.26;102137.81;15479525;28;20054;-50
2023/05/04 05:49:06;;;;;;;0.47;0.47;;;;;;;10.60;56.76;102121.88;15493235;28;19929;-51
2023/05/04 05:56:40;;;;;;;1.13;0.73;;;;;;;13.10;48.75;102122.22;15495785;28;20050;-49
2023/05/04 06:04:13;;;;;;;1.23;0.82;;;;;;;15.74;43.85;102119.00;15476042;28;20137;-49
2023/05/04 06:11:47;;;;;;;;;;;;;;;16.46;39.75;102127.97;15496468;28;20503;-54
2023/05/04 06:19:20;;;;;;;0.80;0.45;;;;;;;16.27;40.06;102113.44;15491756;28;19922;-50
2023/05/04 06:26:54;;;;;;;0.57;0.43;;;;;;;16.34;41.23;102113.41;15493986;28;20042;-53
2023/05/04 06:34:28;;;;;;;0.50;0.32;;;;;;;14.79;42.85;102123.72;15497724;28;20137;-51
2023/05/04 06:42:02;;;;;;;1.15;0.60;;;;;;;13.14;47.20;102136.16;15494695;28;20422;-50
2023/05/04 06:49:41;;;;;;;1.95;0.60;;;;;;;14.51;45.20;102123.84;15494479;28;20040;-55
2023/05/04 06:57:15;;;;;;;1.43;0.77;;;;;;;14.59;43.84;102124.69;15492802;28;20046;-54
2023/05/04 07:04:48;;;;;;;1.88;1.08;;;;;;;16.27;41.38;102116.16;15492711;28;20435;-51
2023/05/04 07:12:22;;;;;;;0.97;0.60;;;;;;;17.67;39.05;102112.50;15490166;28;20527;-53
2023/05/04 07:19:55;;;;;;;1.70;0.68;;;;;;;19.47;37.29;102114.53;15490389;28;20384;-50
2023/05/04 07:27:28;;;;;;;4.10;1.00;;;;;;;19.74;34.43;102110.31;15492323;28;20062;-52
2023/05/04 07:35:01;;;;;;;0.80;0.22;;;;;;;19.78;34.16;102102.50;15492827;28;20393;-53
2023/05/04 07:42:36;;;;;;;0.77;0.63;;;;;;;19.81;35.37;102088.38;15491016;28;20054;-53
2023/05/04 07:50:10;;;;;;;1.00;0.45;;;;;;;18.95;35.88;102095.28;15487913;28;20045;-54
2023/05/04 07:57:44;;;;;;;1.27;0.60;;;;;;;20.64;32.89;102076.19;15499776;28;20058;-50
2023/05/04 08:05:17;;;;;;;0.75;0.65;;;;;;;19.52;34.88;102071.91;15471016;28;20038;-52
2023/05/04 08:12:51;;;;;;;1.48;0.40;;;;;;;18.31;35.39;102073.16;15470157;28;20421;-53
2023/05/04 08:20:24;;;;;;;0.60;0.47;;;;;;;19.15;35.32;102070.47;15468224;28;20062;-51
2023/05/04 08:27:59;;;;;;;0.80;0.65;;;;;;;19.01;34.16;102067.97;15486865;28;20066;-51
2023/05/04 08:35:31;;;;;;;0.95;0.60;;;;;;;19.41;34.66;102061.03;15470505;28;20678;-52
2023/05/04 08:43:05;;;;;;;0.77;0.55;;;;;;;19.55;33.07;102054.28;15471894;28;20496;-52
2023/05/04 08:50:38;;;;;;;5.43;1.00;;;;;;;20.26;30.24;102052.25;15491720;28;20116;-55
2023/05/04 08:58:13;;;;;;;0.70;0.57;;;;;;;19.60;29.67;102040.81;15497596;28;20183;-50
2023/05/04 09:05:49;;;;;;;0.65;0.50;;;;;;;19.69;30.09;102038.53;15493809;28;20039;-56
2023/05/04 09:13:23;;;;;;;0.85;0.63;;;;;;;19.81;27.80;102039.34;15495011;28;20072;-55
2023/05/04 09:20:57;;;;;;;0.98;0.70;;;;;;;19.92;29.10;102038.50;15496704;28;20116;-52
2023/05/04 09:28:35;;;;;;;;;;;;;;;19.59;29.76;102033.66;15497864;28;20455;-54
2023/05/04 09:36:15;;;;;;;0.85;0.30;;;;;;;19.02;28.92;102031.53;15479153;28;19921;-53
2023/05/04 09:43:49;;;;;;;1.23;0.60;;;;;;;20.48;30.89;102011.53;15494905;28;20466;-53
2023/05/04 09:51:24;;;;;;;0.55;0.35;;;;;;;19.71;27.73;102020.88;15497732;28;20046;-50
2023/05/04 09:58:58;;;;;;;1.85;0.93;;;;;;;20.87;27.10;102004.25;15477169;28;20484;-55
2023/05/04 10:06:32;;;;;;;2.30;0.40;;;;;;;20.63;28.19;101988.06;15480124;28;20471;-54
2023/05/04 10:14:07;;;;;;;1.27;0.70;;;;;;;19.70;29.31;101975.63;15491751;28;20058;-52
2023/05/04 10:21:53;;;;;;;3.28;1.23;;;;;;;20.76;28.76;101964.25;15493739;28;20074;-55
2023/05/04 10:29:31;;;;;;;1.50;0.88;;;;;;;19.64;29.57;101957.53;15497581;28;20206;-54
2023/05/04 10:37:04;;;;;;;0.90;0.35;;;;;;;19.98;29.61;101958.47;15488004;28;20069;-53
2023/05/04 10:44:52;;;;;;;;;;;;;;;19.62;28.53;101952.31;15494762;28;20101;-53
2023/05/04 10:52:24;;;;;;;2.80;1.08;;;;;;;19.45;29.16;101939.69;15498573;28;20338;-55
2023/05/04 10:59:58;;;;;;;;;;;;;;;21.01;31.25;101918.22;15493886;28;20070;-53
2023/05/04 11:07:36;;;;;;;2.33;0.85;;;;;;;21.50;27.84;101912.91;15452665;28;19922;-52
2023/05/04 11:15:10;;;;;;;1.00;0.40;;;;;;;21.24;29.35;101917.19;15492899;28;20047;-55
2023/05/04 11:22:43;;;;;;;0.50;0.38;;;;;;;21.18;28.12;101892.81;15493306;28;20542;-51
2023/05/04 11:30:17;;;;;;;0.90;0.40;;;;;;;21.14;29.84;101898.75;15470485;28;20042;-51
2023/05/04 11:37:50;;;;;;;2.90;0.55;;;;;;;21.82;28.85;101880.22;15490261;28;20042;-53
2023/05/04 11:45:26;;;;;;;1.10;0.70;;;;;;;22.05;29.31;101872.75;15489964;28;20651;-52
2023/05/04 11:53:07;;;;;;;3.90;1.27;;;;;;;21.32;27.01;101870.34;15490450;28;20104;-54
2023/05/04 12:00:43;;;;;;;1.38;0.80;;;;;;;20.68;28.74;101860.97;15481817;28;20042;-56
2023/05/04 12:08:24;;;;;;;1.98;1.10;;;;;;;21.15;27.12;101850.44;15489235;28;20030;-49
2023/05/04 12:16:08;;;;;;;3.83;1.13;;;;;;;21.88;27.56;101846.34;15470996;28;20054;-51
2023/05/04 12:23:42;;;;;;;0.50;0.40;;;;;;;21.90;25.17;101848.81;15487720;28;20210;-52
2023/05/04 12:31:15;;;;;;;1.25;0.57;;;;;;;22.08;26.59;101837.50;15497785;28;20053;-51
2023/05/04 12:38:48;;;;;;;1.80;0.90;;;;;;;23.05;26.82;101838.19;15482387;28;20078;-53
2023/05/04 12:46:23;;;;;;;0.93;0.52;;;;;;;22.05;26.16;101829.00;15498438;28;20065;-55
2023/05/04 12:53:57;;;;;;;1.55;0.70;;;;;;;22.75;28.00;101840.75;15499755;28;20066;-53
2023/05/04 13:01:30;;;;;;;1.13;0.40;;;;;;;23.53;25.54;101825.19;15496199;28;20142;-54
2023/05/04 13:09:04;;;;;;;0.85;0.60;;;;;;;22.75;25.14;101808.72;15493478;28;20584;-53
2023/05/04 13:16:38;;;;;;;4.57;0.43;;;;;;;22.81;24.78;101802.19;15497445;28;20039;-53
2023/05/04 13:24:11;;;;;;;1.42;0.82;;;;;;;22.64;25.53;101796.91;15484066;28;20038;-50
2023/05/04 13:31:45;;;;;;;1.63;0.63;;;;;;;22.14;25.02;101790.00;15496856;28;20134;-54
2023/05/04 13:39:21;;;;;;;0.50;0.40;;;;;;;22.10;25.10;101771.63;15495839;28;20034;-51
2023/05/04 13:46:55;;;;;;;3.00;0.77;;;;;;;21.58;26.71;101766.81;15494051;28;20043;-53
2023/05/04 13:54:28;;;;;;;0.88;0.55;;;;;;;20.87;26.91;101754.00;15477837;28;20074;-52
2023/05/04 14:02:02;;;;;;;2.80;1.02;;;;;;;21.54;27.38;101750.13;15472002;28;20054;-52
2023/05/04 14:09:34;;;;;;;0.93;0.60;;;;;;;21.02;27.38;101736.16;15494294;28;20186;-53
2023/05/04 14:17:08;;;;;;;;;;;;;;;20.80;29.42;101714.38;15477069;28;20050;-52
2023/05/04 14:24:41;;;;;;;2.08;0.60;;;;;;;20.18;27.33;101707.22;15476118;28;19922;-52
2023/05/04 14:32:16;;;;;;;3.10;1.08;;;;;;;20.50;26.38;101704.69;15492967;28;20074;-51
2023/05/04 14:39:48;;;;;;;0.95;0.55;;;;;;;20.45;27.13;101690.16;15476580;28;20361;-52
2023/05/04 14:47:22;;;;;;;;;;;;;;;20.55;26.77;101690.28;15489963;28;20126;-50
2023/05/04 14:54:55;;;;;;;0.82;0.60;;;;;;;20.55;26.51;101691.13;15492695;28;19937;-50
2023/05/04 15:02:29;;;;;;;;;;;;;;;19.95;27.01;101675.53;15491431;28;20607;-52
2023/05/04 15:10:02;;;;;;;0.85;0.52;;;;;;;20.59;26.14;101669.63;15485282;28;19928;-50
2023/05/04 15:17:36;;;;;;;1.00;0.68;;;;;;;20.20;26.38;101664.19;15490629;28;20035;-53
2023/05/04 15:25:09;;;;;;;0.63;0.40;;;;;;;20.17;29.04;101659.22;15491759;28;20045;-50
2023/05/04 15:32:44;;;;;;;0.63;0.43;;;;;;;19.66;28.54;101655.75;15488821;28;20038;-50
2023/05/04 15:40:17;;;;;;;0.40;0.40;;;;;;;20.30;28.26;101638.97;15489586;28;20154;-50
2023/05/04 15:47:52;;;;;;;0.30;0.20;;;;;;;20.17;27.19;101629.25;15473089;28;20077;-49
2023/05/04 15:55:26;;;;;;;1.02;0.52;;;;;;;19.73;28.07;101622.91;15491445;28;20042;-52
2023/05/04 16:03:00;;;;;;;4.78;0.57;;;;;;;19.92;27.72;101618.84;15490057;28;20417;-52
2023/05/04 16:10:33;;;;;;;0.98;0.63;;;;;;;20.19;28.60;101618.94;15491131;28;20046;-50
2023/05/04 16:18:07;;;;;;;1.73;0.80;;;;;;;20.57;27.76;101612.59;15489779;28;20073;-50
2023/05/04 16:25:40;;;;;;;1.73;0.50;;;;;;;20.09;29.08;101613.31;15489191;28;20041;-51
2023/05/04 16:33:14;;;;;;;;;;;;;;;19.79;28.57;101600.94;15469556;28;20105;-58
2023/05/04 16:40:47;;;;;;;1.63;0.47;;;;;;;19.78;30.30;101595.75;15487967;28;19925;-58
2023/05/04 16:48:21;;;;;;;1.55;0.85;;;;;;;19.58;30.12;101588.06;15487657;28;20046;-59
2023/05/04 16:55:54;;;;;;;0.98;0.28;;;;;;;19.97;29.16;101585.38;15490763;28;20069;-57
2023/05/04 17:03:29;;;;;;;1.75;0.55;;;;;;;20.24;29.31;101580.84;15489286;28;20050;-58
2023/05/04 17:11:02;;;;;;;0.38;0.28;;;;;;;20.10;30.07;101577.66;15475146;28;20573;-55
2023/05/04 17:18:36;;;;;;;0.75;0.60;;;;;;;19.85;28.72;101578.13;15501889;28;20046;-52
2023/05/04 17:26:09;;;;;;;1.98;0.50;;;;;;;19.93;29.80;101582.34;15500344;28;20427;-54
2023/05/04 17:33:43;;;;;;;0.57;0.35;;;;;;;20.00;29.40;101579.41;15499197;28;20042;-55
2023/05/04 17:41:16;;;;;;;2.70;1.05;;;;;;;19.56;29.92;101576.59;15481872;28;20054;-54
2023/05/04 17:48:51;;;;;;;0.70;0.70;;;;;;;19.41;30.57;101571.75;15490718;28;20573;-55
2023/05/04 17:56:24;;;;;;;1.27;0.60;;;;;;;19.43;30.91;101582.38;15472484;28;20542;-51
2023/05/04 18:03:58;;;;;;;0.73;0.43;;;;;;;19.48;31.78;101586.00;15472466;28;20500;-54
2023/05/04 18:11:31;;;;;;;1.50;1.00;;;;;;;19.41;32.48;101587.25;15489232;28;20113;-54
2023/05/04 18:19:05;;;;;;;0.25;0.25;;;;;;;19.02;38.00;101593.41;15489097;28;20049;-54
2023/05/04 18:26:38;;;;;;;0.20;0.20;;;;;;;18.74;34.94;101588.84;15491320;28;20638;-53
2023/05/04 18:34:12;;;;;;;5.22;0.57;;;;;;;18.61;36.05;101592.66;15476543;28;20104;-54
2023/05/04 18:41:45;;;;;;;0.95;0.70;;;;;;;18.50;36.53;101600.84;15494883;28;20051;-56
2023/05/04 18:49:24;;;;;;;1.17;0.88;;;;;;;18.14;39.53;101604.72;15498388;28;20075;-56
2023/05/04 18:56:57;;;;;;;1.65;0.77;;;;;;;17.99;40.73;101613.38;15494566;28;20657;-58
2023/05/04 19:04:31;;;;;;;1.17;0.77;;;;;;;17.68;41.48;101617.28;15476042;28;20053;-55
2023/05/04 19:12:04;;;;;;;1.65;1.13;;;;;;;17.43;41.60;101614.75;15475976;28;20038;-57
2023/05/04 19:19:38;;;;;;;;;;;;;;;17.19;40.27;101614.72;15491536;28;20628;-58
2023/05/04 19:27:11;;;;;;;1.10;0.73;;;;;;;17.09;41.42;101607.16;15492344;28;20374;-59
2023/05/04 19:34:45;;;;;;;1.17;0.47;;;;;;;17.30;40.56;101605.81;15473365;28;20054;-60
2023/05/04 19:42:18;;;;;;;0.98;0.60;;;;;;;17.36;40.75;101593.19;15474428;28;20697;-59
2023/05/04 19:49:53;;;;;;;2.90;1.17;;;;;;;17.64;40.44;101608.78;15488256;28;20458;-58
2023/05/04 19:57:25;;;;;;;0.85;0.77;;;;;;;16.45;40.81;101618.66;15488849;28;20300;-54
2023/05/04 20:04:59;;;;;;;0.53;0.50;;;;;;;15.59;40.17;101608.75;15488217;28;20112;-57
2023/05/04 20:12:32;;;;;;;1.42;0.75;;;;;;;15.55;40.97;101608.34;15483591;28;20487;-58
2023/05/04 20:20:08;;;;;;;0.40;0.40;;;;;;;15.22;40.32;101614.03;15470134;28;20038;-55
2023/05/04 20:27:41;;;;;;;5.07;1.33;;;;;;;15.78;41.08;101608.59;15484734;28;20045;-55
2023/05/04 20:35:16;;;;;;;1.83;0.80;;;;;;;15.10;41.25;101618.50;15479901;28;20039;-58
2023/05/04 20:42:48;;;;;;;1.35;0.60;;;;;;;14.80;41.58;101617.22;15486162;28;20046;-57
2023/05/04 20:50:23;;;;;;;1.37;0.60;;;;;;;15.47;42.35;101605.94;15496565;28;20172;-55
2023/05/04 20:57:55;;;;;;;3.40;0.60;;;;;;;15.15;43.00;101595.16;15481238;28;20061;-55
2023/05/04 21:05:30;;;;;;;0.98;0.82;;;;;;;14.64;42.74;101590.72;15494194;28;20074;-55
2023/05/04 21:13:02;;;;;;;0.90;0.40;;;;;;;13.99;44.16;101598.84;15495313;28;20519;-55
2023/05/04 21:20:37;;;;;;;1.40;0.60;;;;;;;14.29;44.38;101584.81;15496821;28;20403;-53
2023/05/04 21:28:09;;;;;;;1.52;0.70;;;;;;;13.93;45.51;101585.34;15494627;28;20104;-55
2023/05/04 21:35:43;;;;;;;0.40;0.40;;;;;;;13.52;45.51;101581.91;15493551;28;20058;-56
2023/05/04 21:43:17;;;;;;;0.90;0.20;;;;;;;13.69;45.41;101579.59;15496875;28;20124;-56
2023/05/04 21:50:51;;;;;;;0.27;0.27;;;;;;;13.88;44.89;101579.75;15491651;28;20081;-53
2023/05/04 21:58:24;;;;;;;1.58;1.05;;;;;;;13.21;46.80;101579.81;15492406;28;20122;-57
2023/05/04 22:05:58;;;;;;;1.13;0.43;;;;;;;13.10;47.37;101575.00;15488261;28;20038;-55
2023/05/04 22:13:31;;;;;;;0.93;0.50;;;;;;;12.84;48.83;101583.91;15477063;28;20050;-53
2023/05/04 22:21:05;;;;;;;1.13;0.70;;;;;;;12.66;49.94;101581.78;15455758;28;20112;-55
2023/05/04 22:28:38;;;;;;;0.70;0.60;;;;;;;12.56;50.57;101585.91;15488486;28;20605;-54
2023/05/04 22:36:12;;;;;;;5.03;1.03;;;;;;;12.58;50.28;101579.28;15493812;28;20047;-51
2023/05/04 22:43:44;;;;;;;0.50;0.50;;;;;;;12.43;50.95;101581.31;15495308;28;20046;-50
2023/05/04 22:51:18;;;;;;;0.43;0.30;;;;;;;12.18;51.88;101584.53;15473505;28;20035;-54
2023/05/04 22:58:51;;;;;;;1.08;0.50;;;;;;;11.97;52.58;101593.50;15493086;28;20076;-53
2023/05/04 23:06:27;;;;;;;0.35;0.35;;;;;;;11.95;52.72;101590.22;15492129;28;20690;-52
2023/05/04 23:14:00;;;;;;;2.08;0.80;;;;;;;11.61;52.97;101549.81;15491222;28;20054;-55
2023/05/04 23:21:35;;;;;;;2.33;1.17;;;;;;;11.91;52.85;101585.41;15487107;28;20126;-53
2023/05/04 23:29:07;;;;;;;1.88;1.00;;;;;;;11.74;53.17;101591.06;15490513;28;20345;-52
2023/05/04 23:36:41;;;;;;;1.97;0.90;;;;;;;11.69;53.61;101593.53;15490846;28;20046;-53
2023/05/04 23:44:15;;;;;;;0.90;0.82;;;;;;;11.60;53.62;101589.31;15488350;28;20034;-54
2023/05/04 23:51:49;;;;;;;1.15;0.73;;;;;;;11.74;53.51;101588.38;15490082;28;20572;-52
2023/05/04 23:59:21;;;;;;;1.73;1.30;;;;;;;11.40;54.65;101583.81;15487025;28;20041;-52
